sensor_id;sensor_type;location;lat;lon;timestamp;pressure;altitude;pressure_sealevel;temperature;humidity
27984;BME280;15317;50.360;8.726;2023-01-27T00:03:42;99876.94;;;0.23;100.00
27984;BME280;15317;50.360;8.726;2023-01-27T00:07:44;99871.63;;;0.23;100.00
27984;BME280;15317;50.360;8.726;2023-01-27T00:11:49;99869.03;;;0.21;100.00
27984;BME280;15317;50.360;8.726;2023-01-27T00:16:08;99871.44;;;0.26;100.00
27984;BME280;15317;50.360;8.726;2023-01-27T00:20:11;99864.38;;;0.25;100.00
27984;BME280;15317;50.360;8.726;2023-01-27T00:24:13;99862.38;;;0.28;100.00
27984;BME280;15317;50.360;8.726;2023-01-27T00:28:35;99873.00;;;0.30;100.00
27984;BME280;15317;50.360;8.726;2023-01-27T00:32:38;99859.81;;;0.27;100.00
27984;BME280;15317;50.360;8.726;2023-01-27T00:36:57;99863.59;;;0.23;100.00
27984;BME280;15317;50.360;8.726;2023-01-27T00:41:00;99862.56;;;0.25;100.00
27984;BME280;15317;50.360;8.726;2023-01-27T00:45:21;99863.53;;;0.24;100.00
27984;BME280;15317;50.360;8.726;2023-01-27T00:49:41;99858.69;;;0.31;100.00
27984;BME280;15317;50.360;8.726;2023-01-27T00:53:43;99866.53;;;0.34;100.00
27984;BME280;15317;50.360;8.726;2023-01-27T00:57:45;99863.16;;;0.30;100.00
27984;BME280;15317;50.360;8.726;2023-01-27T01:01:48;99857.81;;;0.30;100.00
27984;BME280;15317;50.360;8.726;2023-01-27T01:05:50;99873.00;;;0.30;100.00
27984;BME280;15317;50.360;8.726;2023-01-27T01:09:52;99873.00;;;0.30;100.00
27984;BME280;15317;50.360;8.726;2023-01-27T01:13:54;99875.66;;;0.30;100.00
27984;BME280;15317;50.360;8.726;2023-01-27T01:17:58;99879.56;;;0.40;100.00
27984;BME280;15317;50.360;8.726;2023-01-27T01:22:00;99887.81;;;0.35;100.00
27984;BME280;15317;50.360;8.726;2023-01-27T01:26:02;99887.81;;;0.35;100.00
27984;BME280;15317;50.360;8.726;2023-01-27T01:30:05;99889.81;;;0.48;100.00
27984;BME280;15317;50.360;8.726;2023-01-27T01:34:09;99886.28;;;0.47;100.00
27984;BME280;15317;50.360;8.726;2023-01-27T01:38:11;99893.88;;;0.39;100.00
27984;BME280;15317;50.360;8.726;2023-01-27T01:42:13;99894.53;;;0.43;100.00
27984;BME280;15317;50.360;8.726;2023-01-27T01:46:15;99894.53;;;0.43;100.00
27984;BME280;15317;50.360;8.726;2023-01-27T01:50:19;99887.22;;;0.46;100.00
27984;BME280;15317;50.360;8.726;2023-01-27T01:54:23;99884.63;;;0.45;100.00
27984;BME280;15317;50.360;8.726;2023-01-27T01:58:27;99879.38;;;0.43;100.00
27984;BME280;15317;50.360;8.726;2023-01-27T02:02:30;99889.38;;;0.39;100.00
27984;BME280;15317;50.360;8.726;2023-01-27T02:06:36;99881.38;;;0.39;100.00
27984;BME280;15317;50.360;8.726;2023-01-27T02:10:41;99877.47;;;0.45;100.00
27984;BME280;15317;50.360;8.726;2023-01-27T02:14:43;99875.59;;;0.47;100.00
27984;BME280;15317;50.360;8.726;2023-01-27T02:18:45;99878.34;;;0.46;100.00
27984;BME280;15317;50.360;8.726;2023-01-27T02:22:58;99876.78;;;0.42;100.00
27984;BME280;15317;50.360;8.726;2023-01-27T02:27:04;99880.22;;;0.44;100.00
27984;BME280;15317;50.360;8.726;2023-01-27T02:31:06;99875.66;;;0.46;100.00
27984;BME280;15317;50.360;8.726;2023-01-27T02:35:10;99880.81;;;0.49;100.00
27984;BME280;15317;50.360;8.726;2023-01-27T02:39:17;99887.91;;;0.50;100.00
27984;BME280;15317;50.360;8.726;2023-01-27T02:43:22;99888.69;;;0.52;100.00
27984;BME280;15317;50.360;8.726;2023-01-27T02:47:24;99889.91;;;0.46;100.00
27984;BME280;15317;50.360;8.726;2023-01-27T02:51:26;99891.63;;;0.47;100.00
27984;BME280;15317;50.360;8.726;2023-01-27T02:55:28;99889.53;;;0.52;100.00
27984;BME280;15317;50.360;8.726;2023-01-27T02:59:32;99886.28;;;0.47;100.00
27984;BME280;15317;50.360;8.726;2023-01-27T03:03:34;99885.81;;;0.55;100.00
27984;BME280;15317;50.360;8.726;2023-01-27T03:07:46;99890.22;;;0.56;100.00
27984;BME280;15317;50.360;8.726;2023-01-27T03:11:48;99899.97;;;0.57;100.00
27984;BME280;15317;50.360;8.726;2023-01-27T03:16:10;99903.94;;;0.65;100.00
27984;BME280;15317;50.360;8.726;2023-01-27T03:20:30;99910.50;;;0.60;100.00
27984;BME280;15317;50.360;8.726;2023-01-27T03:24:32;99905.81;;;0.63;100.00
27984;BME280;15317;50.360;8.726;2023-01-27T03:28:34;99907.97;;;0.57;100.00
27984;BME280;15317;50.360;8.726;2023-01-27T03:32:37;99905.31;;;0.57;100.00
27984;BME280;15317;50.360;8.726;2023-01-27T03:36:46;99904.53;;;0.55;100.00
27984;BME280;15317;50.360;8.726;2023-01-27T03:41:06;99897.66;;;0.51;100.00
27984;BME280;15317;50.360;8.726;2023-01-27T03:45:25;99912.81;;;0.50;100.00
27984;BME280;15317;50.360;8.726;2023-01-27T03:49:46;99906.00;;;0.45;100.00
27984;BME280;15317;50.360;8.726;2023-01-27T03:53:49;99910.41;;;0.46;100.00
27984;BME280;15317;50.360;8.726;2023-01-27T03:57:51;99914.63;;;0.50;100.00
27984;BME280;15317;50.360;8.726;2023-01-27T04:01:53;99917.13;;;0.53;100.00
27984;BME280;15317;50.360;8.726;2023-01-27T04:06:16;99916.00;;;0.57;100.00
27984;BME280;15317;50.360;8.726;2023-01-27T04:10:35;99920.75;;;0.52;100.00
27984;BME280;15317;50.360;8.726;2023-01-27T04:14:38;99912.91;;;0.49;100.00
27984;BME280;15317;50.360;8.726;2023-01-27T04:18:41;99910.41;;;0.46;100.00
27984;BME280;15317;50.360;8.726;2023-01-27T04:22:45;99914.69;;;0.48;100.00
27984;BME280;15317;50.360;8.726;2023-01-27T04:26:48;99913.88;;;0.48;100.00
27984;BME280;15317;50.360;8.726;2023-01-27T04:30:50;99914.69;;;0.48;100.00
27984;BME280;15317;50.360;8.726;2023-01-27T04:34:52;99909.13;;;0.53;100.00
27984;BME280;15317;50.360;8.726;2023-01-27T04:38:56;99916.88;;;0.57;100.00
27984;BME280;15317;50.360;8.726;2023-01-27T04:42:58;99923.78;;;0.61;100.00
27984;BME280;15317;50.360;8.726;2023-01-27T04:47:00;99920.41;;;0.58;100.00
27984;BME280;15317;50.360;8.726;2023-01-27T04:51:02;99923.88;;;0.60;100.00
27984;BME280;15317;50.360;8.726;2023-01-27T04:55:07;99921.94;;;0.62;100.00
27984;BME280;15317;50.360;8.726;2023-01-27T04:59:10;99931.09;;;0.58;100.00
27984;BME280;15317;50.360;8.726;2023-01-27T05:03:13;99924.03;;;0.57;100.00
27984;BME280;15317;50.360;8.726;2023-01-27T05:07:15;99927.56;;;0.57;100.00
27984;BME280;15317;50.360;8.726;2023-01-27T05:11:19;99934.72;;;0.57;100.00
27984;BME280;15317;50.360;8.726;2023-01-27T05:15:21;99941.13;;;0.54;100.00
27984;BME280;15317;50.360;8.726;2023-01-27T05:19:23;99938.31;;;0.56;100.00
27984;BME280;15317;50.360;8.726;2023-01-27T05:23:25;99945.25;;;0.60;100.00
27984;BME280;15317;50.360;8.726;2023-01-27T05:27:38;99939.91;;;0.60;100.00
27984;BME280;15317;50.360;8.726;2023-01-27T05:31:40;99951.34;;;0.62;100.00
27984;BME280;15317;50.360;8.726;2023-01-27T05:35:42;99937.97;;;0.62;100.00
27984;BME280;15317;50.360;8.726;2023-01-27T05:39:44;99948.66;;;0.62;100.00
27984;BME280;15317;50.360;8.726;2023-01-27T05:43:52;99951.44;;;0.60;100.00
27984;BME280;15317;50.360;8.726;2023-01-27T05:47:57;99950.59;;;0.60;100.00
27984;BME280;15317;50.360;8.726;2023-01-27T05:52:00;99949.53;;;0.62;100.00
27984;BME280;15317;50.360;8.726;2023-01-27T05:56:03;99955.06;;;0.59;100.00
27984;BME280;15317;50.360;8.726;2023-01-27T06:00:08;99949.66;;;0.61;100.00
27984;BME280;15317;50.360;8.726;2023-01-27T06:04:11;99955.50;;;0.67;100.00
27984;BME280;15317;50.360;8.726;2023-01-27T06:08:13;99955.75;;;0.63;100.00
27984;BME280;15317;50.360;8.726;2023-01-27T06:12:15;99965.69;;;0.61;100.00
27984;BME280;15317;50.360;8.726;2023-01-27T06:16:23;99958.41;;;0.63;100.00
27984;BME280;15317;50.360;8.726;2023-01-27T06:20:25;99966.09;;;0.69;100.00
27984;BME280;15317;50.360;8.726;2023-01-27T06:24:28;99974.97;;;0.69;100.00
27984;BME280;15317;50.360;8.726;2023-01-27T06:28:30;99969.19;;;0.77;100.00
27984;BME280;15317;50.360;8.726;2023-01-27T06:32:35;99975.41;;;0.77;100.00
27984;BME280;15317;50.360;8.726;2023-01-27T06:36:38;99972.59;;;0.81;100.00
27984;BME280;15317;50.360;8.726;2023-01-27T06:40:40;99977.41;;;0.74;100.00
27984;BME280;15317;50.360;8.726;2023-01-27T06:44:42;99974.56;;;0.77;100.00
27984;BME280;15317;50.360;8.726;2023-01-27T06:48:46;99977.81;;;0.82;100.00
27984;BME280;15317;50.360;8.726;2023-01-27T06:52:48;99987.69;;;0.82;100.00
27984;BME280;15317;50.360;8.726;2023-01-27T06:56:50;99984.91;;;0.83;100.00
27984;BME280;15317;50.360;8.726;2023-01-27T07:00:52;99986.47;;;0.87;100.00
27984;BME280;15317;50.360;8.726;2023-01-27T07:04:56;99985.69;;;0.85;100.00
27984;BME280;15317;50.360;8.726;2023-01-27T07:08:58;99997.84;;;0.91;100.00
27984;BME280;15317;50.360;8.726;2023-01-27T07:13:04;99999.66;;;0.90;100.00
27984;BME280;15317;50.360;8.726;2023-01-27T07:17:06;99998.91;;;0.88;100.00
27984;BME280;15317;50.360;8.726;2023-01-27T07:21:10;100008.28;;;0.95;100.00
27984;BME280;15317;50.360;8.726;2023-01-27T07:25:12;100002.31;;;0.90;100.00
27984;BME280;15317;50.360;8.726;2023-01-27T07:29:14;100009.25;;;0.94;100.00
27984;BME280;15317;50.360;8.726;2023-01-27T07:33:16;100007.94;;;1.01;100.00
27984;BME280;15317;50.360;8.726;2023-01-27T07:37:20;100012.16;;;1.05;100.00
27984;BME280;15317;50.360;8.726;2023-01-27T07:41:22;100013.53;;;1.12;100.00
27984;BME280;15317;50.360;8.726;2023-01-27T07:45:26;100017.94;;;1.13;100.00
27984;BME280;15317;50.360;8.726;2023-01-27T07:49:28;100020.09;;;1.23;100.00
27984;BME280;15317;50.360;8.726;2023-01-27T07:53:32;100025.34;;;1.24;100.00
27984;BME280;15317;50.360;8.726;2023-01-27T07:57:34;100026.41;;;1.22;100.00
27984;BME280;15317;50.360;8.726;2023-01-27T08:01:36;100034.22;;;1.25;100.00
27984;BME280;15317;50.360;8.726;2023-01-27T08:05:41;100030.97;;;1.19;100.00
27984;BME280;15317;50.360;8.726;2023-01-27T08:09:44;100039.56;;;1.25;100.00
27984;BME280;15317;50.360;8.726;2023-01-27T08:13:47;100044.56;;;1.31;100.00
27984;BME280;15317;50.360;8.726;2023-01-27T08:17:53;100050.28;;;1.40;100.00
27984;BME280;15317;50.360;8.726;2023-01-27T08:21:55;100048.81;;;1.35;100.00
27984;BME280;15317;50.360;8.726;2023-01-27T08:26:02;100070.81;;;1.40;100.00
27984;BME280;15317;50.360;8.726;2023-01-27T08:30:05;100059.16;;;1.41;100.00
27984;BME280;15317;50.360;8.726;2023-01-27T08:34:08;100070.81;;;1.40;100.00
27984;BME280;15317;50.360;8.726;2023-01-27T08:38:11;100077.72;;;1.44;100.00
27984;BME280;15317;50.360;8.726;2023-01-27T08:42:16;100079.00;;;1.52;100.00
27984;BME280;15317;50.360;8.726;2023-01-27T08:46:21;100079.63;;;1.42;100.00
27984;BME280;15317;50.360;8.726;2023-01-27T08:50:23;100090.50;;;1.54;100.00
27984;BME280;15317;50.360;8.726;2023-01-27T08:54:25;100091.34;;;1.55;100.00
27984;BME280;15317;50.360;8.726;2023-01-27T08:58:29;100090.63;;;1.67;100.00
27984;BME280;15317;50.360;8.726;2023-01-27T09:02:31;100090.50;;;1.54;100.00
27984;BME280;15317;50.360;8.726;2023-01-27T09:06:33;100099.69;;;1.65;100.00
27984;BME280;15317;50.360;8.726;2023-01-27T09:10:36;100099.47;;;1.69;100.00
27984;BME280;15317;50.360;8.726;2023-01-27T09:14:41;100106.78;;;1.81;100.00
27984;BME280;15317;50.360;8.726;2023-01-27T09:18:43;100113.44;;;1.74;100.00
27984;BME280;15317;50.360;8.726;2023-01-27T09:22:45;100113.44;;;1.74;100.00
27984;BME280;15317;50.360;8.726;2023-01-27T09:26:47;100116.16;;;1.88;100.00
27984;BME280;15317;50.360;8.726;2023-01-27T09:30:55;100124.22;;;1.88;100.00
27984;BME280;15317;50.360;8.726;2023-01-27T09:34:57;100121.53;;;1.88;100.00
27984;BME280;15317;50.360;8.726;2023-01-27T09:39:02;100115.97;;;1.91;100.00
27984;BME280;15317;50.360;8.726;2023-01-27T09:43:33;100123.06;;;1.92;100.00
27984;BME280;15317;50.360;8.726;2023-01-27T09:47:53;100124.44;;;1.99;100.00
27984;BME280;15317;50.360;8.726;2023-01-27T09:52:15;100119.56;;;2.06;100.00
27984;BME280;15317;50.360;8.726;2023-01-27T09:56:30;100120.06;;;2.13;100.00
27984;BME280;15317;50.360;8.726;2023-01-27T10:00:45;100113.97;;;2.11;100.00
27984;BME280;15317;50.360;8.726;2023-01-27T10:05:18;100110.91;;;2.17;100.00
27984;BME280;15317;50.360;8.726;2023-01-27T10:09:45;100109.47;;;2.25;100.00
27984;BME280;15317;50.360;8.726;2023-01-27T10:14:00;100110.81;;;2.32;100.00
27984;BME280;15317;50.360;8.726;2023-01-27T10:18:17;100103.75;;;2.31;100.00
27984;BME280;15317;50.360;8.726;2023-01-27T10:22:30;100102.31;;;2.40;100.00
27984;BME280;15317;50.360;8.726;2023-01-27T10:26:40;100109.72;;;2.51;100.00
27984;BME280;15317;50.360;8.726;2023-01-27T10:30:50;100100.44;;;2.56;100.00
27984;BME280;15317;50.360;8.726;2023-01-27T10:35:07;100108.09;;;2.62;100.00
27984;BME280;15317;50.360;8.726;2023-01-27T10:39:19;100109.84;;;2.63;100.00
27984;BME280;15317;50.360;8.726;2023-01-27T10:43:32;100113.28;;;2.65;100.00
27984;BME280;15317;50.360;8.726;2023-01-27T10:47:53;100115.97;;;2.65;100.00
27984;BME280;15317;50.360;8.726;2023-01-27T10:52:02;100110.41;;;2.68;100.00
27984;BME280;15317;50.360;8.726;2023-01-27T10:56:10;100110.41;;;2.83;100.00
27984;BME280;15317;50.360;8.726;2023-01-27T11:00:18;100111.19;;;2.99;100.00
27984;BME280;15317;50.360;8.726;2023-01-27T11:04:29;100110.09;;;3.15;100.00
27984;BME280;15317;50.360;8.726;2023-01-27T11:08:34;100110.88;;;3.17;100.00
27984;BME280;15317;50.360;8.726;2023-01-27T11:12:41;100116.41;;;3.14;100.00
27984;BME280;15317;50.360;8.726;2023-01-27T11:16:47;100118.44;;;3.25;100.00
27984;BME280;15317;50.360;8.726;2023-01-27T11:20:52;100111.63;;;3.34;100.00
27984;BME280;15317;50.360;8.726;2023-01-27T11:25:01;100115.50;;;3.42;100.00
27984;BME280;15317;50.360;8.726;2023-01-27T11:29:18;100117.22;;;3.43;100.00
27984;BME280;15317;50.360;8.726;2023-01-27T11:33:25;100126.84;;;3.33;100.00
27984;BME280;15317;50.360;8.726;2023-01-27T11:37:31;100121.66;;;3.30;100.00
27984;BME280;15317;50.360;8.726;2023-01-27T11:41:36;100123.22;;;3.34;100.00
27984;BME280;15317;50.360;8.726;2023-01-27T11:45:40;100117.88;;;3.20;100.00
27984;BME280;15317;50.360;8.726;2023-01-27T11:49:45;100114.97;;;3.23;100.00
27984;BME280;15317;50.360;8.726;2023-01-27T11:53:55;100109.41;;;3.26;100.00
27984;BME280;15317;50.360;8.726;2023-01-27T11:58:10;100107.88;;;3.22;100.00
27984;BME280;15317;50.360;8.726;2023-01-27T12:02:23;100110.56;;;3.22;100.00
27984;BME280;15317;50.360;8.726;2023-01-27T12:06:32;100111.91;;;3.15;100.00
27984;BME280;15317;50.360;8.726;2023-01-27T12:10:37;100102.91;;;3.16;100.00
27984;BME280;15317;50.360;8.726;2023-01-27T12:14:47;100092.56;;;3.10;100.00
27984;BME280;15317;50.360;8.726;2023-01-27T12:18:58;100084.47;;;3.24;100.00
27984;BME280;15317;50.360;8.726;2023-01-27T12:23:05;100084.94;;;3.31;100.00
27984;BME280;15317;50.360;8.726;2023-01-27T12:27:19;100082.13;;;3.46;100.00
27984;BME280;15317;50.360;8.726;2023-01-27T12:31:26;100074.53;;;3.53;100.00
27984;BME280;15317;50.360;8.726;2023-01-27T12:35:33;100076.22;;;3.68;100.00
27984;BME280;15317;50.360;8.726;2023-01-27T12:39:41;100074.78;;;3.63;100.00
27984;BME280;15317;50.360;8.726;2023-01-27T12:43:50;100075.53;;;3.65;100.00
27984;BME280;15317;50.360;8.726;2023-01-27T12:48:01;100074.81;;;3.48;100.00
27984;BME280;15317;50.360;8.726;2023-01-27T12:52:18;100064.25;;;3.60;100.00
27984;BME280;15317;50.360;8.726;2023-01-27T12:56:21;100071.53;;;3.57;100.00
27984;BME280;15317;50.360;8.726;2023-01-27T13:00:25;100059.84;;;3.58;100.00
27984;BME280;15317;50.360;8.726;2023-01-27T13:04:27;100075.19;;;3.56;100.00
27984;BME280;15317;50.360;8.726;2023-01-27T13:08:32;100075.34;;;3.68;100.00
27984;BME280;15317;50.360;8.726;2023-01-27T13:12:47;100075.84;;;3.60;100.00
27984;BME280;15317;50.360;8.726;2023-01-27T13:16:51;100076.72;;;3.61;100.00
27984;BME280;15317;50.360;8.726;2023-01-27T13:20:56;100075.13;;;3.71;100.00
27984;BME280;15317;50.360;8.726;2023-01-27T13:25:02;100080.72;;;3.68;100.00
27984;BME280;15317;50.360;8.726;2023-01-27T13:29:10;100083.19;;;3.71;100.00
27984;BME280;15317;50.360;8.726;2023-01-27T13:33:28;100084.09;;;3.57;100.00
27984;BME280;15317;50.360;8.726;2023-01-27T13:37:33;100094.94;;;3.55;100.00
27984;BME280;15317;50.360;8.726;2023-01-27T13:41:44;100100.53;;;3.52;100.00
27984;BME280;15317;50.360;8.726;2023-01-27T13:45:52;100097.44;;;3.58;100.00
27984;BME280;15317;50.360;8.726;2023-01-27T13:49:58;100102.25;;;3.53;100.00
27984;BME280;15317;50.360;8.726;2023-01-27T13:54:03;100097.06;;;3.50;100.00
27984;BME280;15317;50.360;8.726;2023-01-27T13:58:09;100095.47;;;3.48;100.00
27984;BME280;15317;50.360;8.726;2023-01-27T14:02:35;100096.88;;;3.53;100.00
27984;BME280;15317;50.360;8.726;2023-01-27T14:06:51;100096.47;;;3.60;100.00
27984;BME280;15317;50.360;8.726;2023-01-27T14:11:08;100089.97;;;3.49;100.00
27984;BME280;15317;50.360;8.726;2023-01-27T14:15:21;100098.41;;;3.57;100.00
27984;BME280;15317;50.360;8.726;2023-01-27T14:19:31;100101.84;;;3.60;100.00
27984;BME280;15317;50.360;8.726;2023-01-27T14:23:46;100098.94;;;3.63;100.00
27984;BME280;15317;50.360;8.726;2023-01-27T14:27:56;100100.03;;;3.60;100.00
27984;BME280;15317;50.360;8.726;2023-01-27T14:32:09;100112.78;;;3.56;100.00
27984;BME280;15317;50.360;8.726;2023-01-27T14:36:18;100109.84;;;3.47;100.00
27984;BME280;15317;50.360;8.726;2023-01-27T14:40:25;100120.13;;;3.40;100.00
27984;BME280;15317;50.360;8.726;2023-01-27T14:44:35;100125.75;;;3.50;100.00
27984;BME280;15317;50.360;8.726;2023-01-27T14:48:51;100134.03;;;3.47;100.00
27984;BME280;15317;50.360;8.726;2023-01-27T14:53:07;100135.75;;;3.48;100.00
27984;BME280;15317;50.360;8.726;2023-01-27T14:57:24;100132.94;;;3.49;100.00
27984;BME280;15317;50.360;8.726;2023-01-27T15:01:33;100134.75;;;3.49;100.00
27984;BME280;15317;50.360;8.726;2023-01-27T15:05:43;100147.13;;;3.51;100.00
27984;BME280;15317;50.360;8.726;2023-01-27T15:10:00;100147.53;;;3.45;100.00
27984;BME280;15317;50.360;8.726;2023-01-27T15:14:27;100148.88;;;3.52;100.00
27984;BME280;15317;50.360;8.726;2023-01-27T15:18:52;100153.22;;;3.41;100.00
27984;BME280;15317;50.360;8.726;2023-01-27T15:23:06;100156.09;;;3.38;100.00
27984;BME280;15317;50.360;8.726;2023-01-27T15:27:11;100155.03;;;3.40;100.00
27984;BME280;15317;50.360;8.726;2023-01-27T15:31:22;100153.00;;;3.44;100.00
27984;BME280;15317;50.360;8.726;2023-01-27T15:35:36;100151.09;;;3.46;100.00
27984;BME280;15317;50.360;8.726;2023-01-27T15:40:04;100158.28;;;3.45;100.00
27984;BME280;15317;50.360;8.726;2023-01-27T15:44:16;100158.47;;;3.42;100.00
27984;BME280;15317;50.360;8.726;2023-01-27T15:48:21;100168.88;;;3.34;100.00
27984;BME280;15317;50.360;8.726;2023-01-27T15:52:28;100177.38;;;3.41;100.00
27984;BME280;15317;50.360;8.726;2023-01-27T15:56:44;100165.97;;;3.37;100.00
27984;BME280;15317;50.360;8.726;2023-01-27T16:00:51;100169.59;;;3.36;100.00
27984;BME280;15317;50.360;8.726;2023-01-27T16:05:02;100164.91;;;3.40;100.00
27984;BME280;15317;50.360;8.726;2023-01-27T16:09:06;100177.97;;;3.32;100.00
27984;BME280;15317;50.360;8.726;2023-01-27T16:13:20;100175.75;;;3.38;100.00
27984;BME280;15317;50.360;8.726;2023-01-27T16:17:24;100181.50;;;3.32;100.00
27984;BME280;15317;50.360;8.726;2023-01-27T16:21:40;100182.47;;;3.31;100.00
27984;BME280;15317;50.360;8.726;2023-01-27T16:25:45;100181.31;;;3.21;100.00
27984;BME280;15317;50.360;8.726;2023-01-27T16:29:56;100190.34;;;3.20;100.00
27984;BME280;15317;50.360;8.726;2023-01-27T16:33:59;100189.97;;;3.26;100.00
27984;BME280;15317;50.360;8.726;2023-01-27T16:38:09;100192.03;;;3.21;100.00
27984;BME280;15317;50.360;8.726;2023-01-27T16:42:15;100190.13;;;3.09;100.00
27984;BME280;15317;50.360;8.726;2023-01-27T16:46:32;100194.94;;;3.04;100.00
27984;BME280;15317;50.360;8.726;2023-01-27T16:50:37;100190.03;;;3.10;100.00
27984;BME280;15317;50.360;8.726;2023-01-27T16:54:41;100202.03;;;3.05;100.00
27984;BME280;15317;50.360;8.726;2023-01-27T16:58:45;100204.16;;;3.00;100.00
27984;BME280;15317;50.360;8.726;2023-01-27T17:02:49;100202.22;;;3.02;100.00
27984;BME280;15317;50.360;8.726;2023-01-27T17:06:55;100200.97;;;2.93;100.00
27984;BME280;15317;50.360;8.726;2023-01-27T17:11:04;100197.44;;;2.93;100.00
27984;BME280;15317;50.360;8.726;2023-01-27T17:15:16;100205.81;;;2.87;100.00
27984;BME280;15317;50.360;8.726;2023-01-27T17:19:22;100209.31;;;3.03;100.00
27984;BME280;15317;50.360;8.726;2023-01-27T17:23:29;100207.94;;;2.82;100.00
27984;BME280;15317;50.360;8.726;2023-01-27T17:27:36;100213.38;;;2.80;100.00
27984;BME280;15317;50.360;8.726;2023-01-27T17:31:39;100216.69;;;2.85;100.00
27984;BME280;15317;50.360;8.726;2023-01-27T17:35:47;100226.81;;;2.80;100.00
27984;BME280;15317;50.360;8.726;2023-01-27T17:39:51;100224.50;;;2.74;100.00
27984;BME280;15317;50.360;8.726;2023-01-27T17:43:56;100226.22;;;2.75;100.00
27984;BME280;15317;50.360;8.726;2023-01-27T17:48:01;100225.84;;;2.81;100.00
27984;BME280;15317;50.360;8.726;2023-01-27T17:52:07;100244.91;;;2.76;100.00
27984;BME280;15317;50.360;8.726;2023-01-27T17:56:13;100233.31;;;2.76;100.00
27984;BME280;15317;50.360;8.726;2023-01-27T18:00:22;100246.06;;;2.72;100.00
27984;BME280;15317;50.360;8.726;2023-01-27T18:04:25;100248.91;;;2.69;100.00
27984;BME280;15317;50.360;8.726;2023-01-27T18:08:32;100256.03;;;2.70;100.00
27984;BME280;15317;50.360;8.726;2023-01-27T18:12:36;100261.16;;;2.59;100.00
27984;BME280;15317;50.360;8.726;2023-01-27T18:16:38;100260.59;;;2.68;100.00
27984;BME280;15317;50.360;8.726;2023-01-27T18:20:40;100262.69;;;2.63;100.00
27984;BME280;15317;50.360;8.726;2023-01-27T18:24:49;100264.84;;;2.72;100.00
27984;BME280;15317;50.360;8.726;2023-01-27T18:28:55;100262.97;;;2.59;100.00
27984;BME280;15317;50.360;8.726;2023-01-27T18:33:01;100266.34;;;2.62;100.00
27984;BME280;15317;50.360;8.726;2023-01-27T18:37:24;100274.91;;;2.53;100.00
27984;BME280;15317;50.360;8.726;2023-01-27T18:41:30;100275.78;;;2.54;100.00
27984;BME280;15317;50.360;8.726;2023-01-27T18:45:35;100274.91;;;2.53;100.00
27984;BME280;15317;50.360;8.726;2023-01-27T18:49:37;100278.56;;;2.52;100.00
27984;BME280;15317;50.360;8.726;2023-01-27T18:53:39;100279.53;;;2.51;100.00
27984;BME280;15317;50.360;8.726;2023-01-27T18:57:42;100277.19;;;2.45;100.00
27984;BME280;15317;50.360;8.726;2023-01-27T19:01:44;100285.31;;;2.59;100.00
27984;BME280;15317;50.360;8.726;2023-01-27T19:05:48;100284.38;;;2.45;100.00
27984;BME280;15317;50.360;8.726;2023-01-27T19:09:50;100283.44;;;2.46;100.00
27984;BME280;15317;50.360;8.726;2023-01-27T19:13:53;100289.03;;;2.41;100.00
27984;BME280;15317;50.360;8.726;2023-01-27T19:17:57;100297.44;;;2.35;100.00
27984;BME280;15317;50.360;8.726;2023-01-27T19:22:00;100299.59;;;2.44;100.00
27984;BME280;15317;50.360;8.726;2023-01-27T19:26:02;100306.28;;;2.37;100.00
27984;BME280;15317;50.360;8.726;2023-01-27T19:30:22;100297.78;;;2.29;100.00
27984;BME280;15317;50.360;8.726;2023-01-27T19:34:24;100308.53;;;2.29;100.00
27984;BME280;15317;50.360;8.726;2023-01-27T19:38:28;100316.13;;;2.36;100.00
27984;BME280;15317;50.360;8.726;2023-01-27T19:42:30;100310.25;;;2.30;100.00
27984;BME280;15317;50.360;8.726;2023-01-27T19:46:33;100309.31;;;2.31;100.00
27984;BME280;15317;50.360;8.726;2023-01-27T19:50:35;100306.63;;;2.15;100.00
27984;BME280;15317;50.360;8.726;2023-01-27T19:54:37;100315.97;;;2.24;100.00
27984;BME280;15317;50.360;8.726;2023-01-27T19:58:40;100302.72;;;2.05;100.00
27984;BME280;15317;50.360;8.726;2023-01-27T20:02:43;100299.38;;;2.02;100.00
27984;BME280;15317;50.360;8.726;2023-01-27T20:06:45;100311.03;;;2.01;100.00
27984;BME280;15317;50.360;8.726;2023-01-27T20:10:47;100315.59;;;1.98;100.00
27984;BME280;15317;50.360;8.726;2023-01-27T20:14:51;100322.00;;;1.96;100.00
27984;BME280;15317;50.360;8.726;2023-01-27T20:18:54;100320.97;;;1.98;100.00
27984;BME280;15317;50.360;8.726;2023-01-27T20:22:59;100319.94;;;2.01;100.00
27984;BME280;15317;50.360;8.726;2023-01-27T20:27:01;100327.53;;;2.09;100.00
27984;BME280;15317;50.360;8.726;2023-01-27T20:31:04;100325.66;;;2.11;100.00
27984;BME280;15317;50.360;8.726;2023-01-27T20:35:14;100332.97;;;2.07;100.00
27984;BME280;15317;50.360;8.726;2023-01-27T20:39:16;100339.41;;;2.05;100.00
27984;BME280;15317;50.360;8.726;2023-01-27T20:43:18;100334.47;;;1.97;100.00
27984;BME280;15317;50.360;8.726;2023-01-27T20:47:20;100339.81;;;1.97;100.00
27984;BME280;15317;50.360;8.726;2023-01-27T20:51:24;100335.66;;;1.91;100.00
27984;BME280;15317;50.360;8.726;2023-01-27T20:55:26;100337.13;;;1.81;100.00
27984;BME280;15317;50.360;8.726;2023-01-27T20:59:28;100329.16;;;1.80;100.00
27984;BME280;15317;50.360;8.726;2023-01-27T21:03:30;100336.66;;;1.73;100.00
27984;BME280;15317;50.360;8.726;2023-01-27T21:07:33;100335.13;;;1.69;100.00
27984;BME280;15317;50.360;8.726;2023-01-27T21:11:35;100343.22;;;1.68;100.00
27984;BME280;15317;50.360;8.726;2023-01-27T21:15:38;100345.97;;;1.66;100.00
27984;BME280;15317;50.360;8.726;2023-01-27T21:19:46;100344.44;;;1.62;100.00
27984;BME280;15317;50.360;8.726;2023-01-27T21:23:49;100341.75;;;1.62;100.00
27984;BME280;15317;50.360;8.726;2023-01-27T21:27:51;100356.53;;;1.69;100.00
27984;BME280;15317;50.360;8.726;2023-01-27T21:31:53;100361.88;;;1.69;100.00
27984;BME280;15317;50.360;8.726;2023-01-27T21:35:55;100358.09;;;1.73;100.00